createdAt,value
2019-03-09T00:00:47.556Z,69.25
2019-03-09T00:03:16.023Z,68.99
2019-03-09T00:05:44.620Z,69.75
2019-03-09T00:08:13.092Z,70.48
2019-03-09T00:10:41.558Z,69.85
2019-03-09T00:13:11.420Z,69.16
2019-03-09T00:15:39.900Z,68.96
2019-03-09T00:18:08.394Z,69.73
2019-03-09T00:20:39.358Z,70.40
2019-03-09T00:23:12.491Z,69.56
2019-03-09T00:26:02.236Z,68.71
2019-03-09T00:28:32.499Z,69.38
2019-03-09T00:31:02.691Z,70.56
2019-03-09T00:33:37.361Z,70.20
2019-03-09T00:36:05.974Z,70.48
2019-03-09T00:38:34.482Z,70.73
2019-03-09T00:41:02.955Z,69.88
2019-03-09T00:43:31.435Z,71.27
2019-03-09T00:46:01.628Z,71.58
2019-03-09T00:48:30.126Z,71.64
2019-03-09T00:50:58.622Z,70.92
2019-03-09T00:53:31.548Z,70.91
2019-03-09T00:55:59.987Z,71.25
2019-03-09T00:58:28.475Z,71.32
2019-03-09T01:00:56.947Z,70.74
2019-03-09T01:03:28.296Z,71.26
2019-03-09T01:05:58.276Z,71.85
2019-03-09T01:08:26.766Z,72.42
2019-03-09T01:10:55.309Z,74.38
2019-03-09T01:13:23.943Z,75.59
2019-03-09T01:15:52.432Z,76.09
2019-03-09T01:18:21.028Z,75.13
2019-03-09T01:20:49.651Z,76.13
2019-03-09T01:23:18.151Z,76.72
2019-03-09T01:25:48.271Z,76.50
2019-03-09T01:28:22.289Z,76.57
2019-03-09T01:30:50.847Z,77.11
2019-03-09T01:33:19.413Z,77.50
2019-03-09T01:35:47.909Z,78.01
2019-03-09T01:38:16.478Z,78.52
2019-03-09T01:40:48.443Z,79.32
2019-03-09T01:43:17.009Z,79.14
2019-03-09T01:45:45.560Z,80.16
2019-03-09T01:48:18.628Z,80.86
2019-03-09T01:50:53.254Z,82.86
2019-03-09T01:53:22.643Z,80.65
2019-03-09T01:55:51.065Z,82.16
2019-03-09T01:58:19.540Z,82.16
2019-03-09T02:00:49.725Z,83.44
2019-03-09T02:03:19.855Z,83.54
2019-03-09T02:05:48.384Z,83.32
2019-03-09T02:08:16.953Z,84.04
2019-03-09T02:10:45.430Z,84.49
2019-03-09T02:13:14.076Z,84.26
2019-03-09T02:15:42.700Z,83.82
2019-03-09T02:18:11.291Z,83.45
2019-03-09T02:20:39.781Z,84.16
2019-03-09T02:23:08.415Z,84.11
2019-03-09T02:25:38.466Z,83.19
2019-03-09T02:28:08.899Z,82.28
2019-03-09T02:30:37.376Z,82.61
2019-03-09T02:33:07.490Z,81.97
2019-03-09T02:35:38.960Z,83.26
2019-03-09T02:38:09.362Z,82.80
2019-03-09T02:40:38.183Z,83.68
2019-03-09T02:43:07.056Z,85.04
2019-03-09T02:45:39.402Z,85.03
2019-03-09T02:48:07.851Z,85.44
2019-03-09T02:50:37.972Z,84.26
2019-03-09T02:53:06.452Z,85.37
2019-03-09T02:55:39.698Z,85.93
2019-03-09T02:58:16.516Z,86.16
2019-03-09T03:00:48.050Z,86.28
2019-03-09T03:03:16.525Z,86.15
2019-03-09T03:05:45.031Z,86.29
2019-03-09T03:08:16.011Z,86.56
2019-03-09T03:10:49.992Z,86.91
2019-03-09T03:13:18.457Z,87.42
2019-03-09T03:15:47.092Z,87.50
2019-03-09T03:18:15.546Z,87.32
2019-03-09T03:20:45.778Z,87.57
2019-03-09T03:23:14.248Z,86.33
2019-03-09T03:25:42.732Z,87.34
2019-03-09T03:28:11.309Z,87.39
2019-03-09T03:30:41.814Z,87.49
2019-03-09T03:33:13.686Z,87.76
2019-03-09T03:35:48.061Z,87.51
2019-03-09T03:38:15.753Z,87.00
2019-03-09T03:40:44.243Z,87.65
2019-03-09T03:43:12.713Z,86.95
2019-03-09T03:45:41.326Z,86.70
2019-03-09T03:48:09.795Z,86.58
2019-03-09T03:50:38.302Z,85.69
2019-03-09T03:53:06.781Z,87.10
2019-03-09T03:55:35.909Z,86.76
2019-03-09T03:58:04.530Z,87.25
2019-03-09T04:00:33.790Z,87.48
2019-03-09T04:03:02.253Z,87.14
2019-03-09T04:05:30.828Z,87.36
2019-03-09T04:07:59.666Z,87.14
2019-03-09T04:10:28.301Z,87.01
2019-03-09T04:12:56.812Z,87.30
2019-03-09T04:15:25.359Z,87.95
2019-03-09T04:17:53.907Z,88.21
2019-03-09T04:20:22.566Z,88.29
2019-03-09T04:22:51.201Z,88.47
2019-03-09T04:25:22.745Z,87.63
2019-03-09T04:27:51.336Z,87.96
2019-03-09T04:30:20.006Z,88.35
2019-03-09T04:32:48.522Z,87.80
2019-03-09T04:35:18.608Z,87.75
2019-03-09T04:37:47.125Z,88.37
2019-03-09T04:40:15.856Z,88.76
2019-03-09T04:42:44.406Z,88.00
2019-03-09T04:45:13.757Z,88.47
2019-03-09T04:47:42.320Z,88.70
2019-03-09T04:50:13.249Z,88.59
2019-03-09T04:52:41.766Z,88.80
2019-03-09T04:55:10.822Z,88.99
2019-03-09T04:57:40.150Z,88.91
2019-03-09T05:00:16.077Z,88.78
2019-03-09T05:02:47.737Z,88.73
2019-03-09T05:05:16.450Z,88.98
2019-03-09T05:07:54.177Z,89.15
2019-03-09T05:10:28.806Z,89.08
2019-03-09T05:13:01.314Z,89.20
2019-03-09T05:15:29.784Z,89.27
2019-03-09T05:17:59.790Z,89.41
2019-03-09T05:20:28.339Z,90.49
2019-03-09T05:22:59.517Z,91.30
2019-03-09T05:25:29.660Z,91.47
2019-03-09T05:27:58.132Z,91.54
2019-03-09T05:30:41.125Z,91.47
2019-03-09T05:33:09.935Z,91.17
2019-03-09T05:35:38.549Z,90.60
2019-03-09T05:38:07.107Z,90.22
2019-03-09T05:40:35.691Z,90.07
2019-03-09T05:43:04.697Z,90.02
2019-03-09T05:45:33.697Z,89.92
2019-03-09T05:48:02.175Z,89.80
2019-03-09T05:50:33.902Z,89.69
2019-03-09T05:53:11.175Z,89.53
2019-03-09T05:55:39.706Z,89.17
2019-03-09T05:58:08.314Z,88.88
2019-03-09T06:00:38.364Z,89.03
2019-03-09T06:03:06.915Z,88.75
2019-03-09T06:05:43.277Z,88.80
2019-03-09T06:08:11.765Z,88.74
2019-03-09T06:10:40.309Z,88.59
2019-03-09T06:13:10.503Z,88.66
2019-03-09T06:15:38.962Z,88.53
2019-03-09T06:18:07.649Z,88.41
2019-03-09T06:20:36.451Z,88.56
2019-03-09T06:23:05.159Z,88.43
2019-03-09T06:25:33.648Z,88.12
2019-03-09T06:28:02.158Z,88.17
2019-03-09T06:30:32.975Z,88.31
2019-03-09T06:33:43.488Z,88.36
2019-03-09T06:36:17.684Z,88.05
2019-03-09T06:39:01.151Z,87.94
2019-03-09T06:41:38.413Z,87.87
2019-03-09T06:44:07.084Z,87.45
2019-03-09T06:46:35.539Z,87.42
2019-03-09T06:49:04.095Z,87.53
2019-03-09T06:51:32.572Z,87.38
2019-03-09T06:54:01.061Z,87.65
2019-03-09T06:56:29.866Z,87.16
2019-03-09T06:58:58.334Z,87.29
2019-03-09T07:01:28.397Z,87.19
2019-03-09T07:03:57.668Z,86.94
2019-03-09T07:06:28.130Z,87.12
2019-03-09T07:08:56.704Z,87.03
2019-03-09T07:11:27.664Z,86.94
2019-03-09T07:13:56.145Z,87.07
2019-03-09T07:16:26.268Z,87.06
2019-03-09T07:18:54.744Z,86.64
2019-03-09T07:21:24.450Z,86.16
2019-03-09T07:23:54.344Z,86.53
2019-03-09T07:26:22.894Z,86.19
2019-03-09T07:28:52.925Z,85.78
2019-03-09T07:31:21.667Z,86.21
2019-03-09T07:33:53.203Z,86.24
2019-03-09T07:36:23.326Z,85.93
2019-03-09T07:38:51.902Z,85.39
2019-03-09T07:41:23.403Z,85.91
2019-03-09T07:43:53.435Z,85.08
2019-03-09T07:46:21.906Z,84.17
2019-03-09T07:48:50.396Z,83.55
2019-03-09T07:51:19.219Z,82.16
2019-03-09T07:53:47.721Z,82.32
2019-03-09T07:56:16.860Z,81.25
2019-03-09T07:58:45.421Z,82.04
2019-03-09T08:01:15.653Z,81.69
2019-03-09T08:03:44.242Z,80.35
2019-03-09T08:06:13.312Z,80.26
2019-03-09T08:08:41.821Z,80.99
2019-03-09T08:11:10.352Z,81.08
2019-03-09T08:13:39.169Z,80.59
2019-03-09T08:16:07.728Z,81.54
2019-03-09T08:18:36.256Z,81.34
2019-03-09T08:21:05.106Z,79.86
2019-03-09T08:23:35.216Z,79.46
2019-03-09T08:26:06.526Z,79.95
2019-03-09T08:28:35.506Z,80.13
2019-03-09T08:31:04.123Z,79.55
2019-03-09T08:33:36.761Z,80.01
2019-03-09T08:36:05.300Z,79.25
2019-03-09T08:38:33.750Z,77.73
2019-03-09T08:41:02.234Z,77.96
2019-03-09T08:43:30.746Z,77.74
2019-03-09T08:45:59.231Z,76.13
2019-03-09T08:48:27.693Z,75.58
2019-03-09T08:50:56.191Z,74.07
2019-03-09T08:53:27.808Z,73.60
2019-03-09T08:55:56.765Z,72.13
2019-03-09T08:58:25.219Z,69.82
2019-03-09T09:00:53.701Z,70.19
2019-03-09T09:03:22.232Z,72.32
2019-03-09T09:05:50.760Z,71.05
2019-03-09T09:08:19.233Z,71.37
2019-03-09T09:10:47.712Z,71.43
2019-03-09T09:13:16.177Z,71.71
2019-03-09T09:15:47.248Z,71.31
2019-03-09T09:18:15.723Z,71.52
2019-03-09T09:20:44.195Z,70.79
2019-03-09T09:23:12.729Z,70.35
2019-03-09T09:25:41.219Z,70.57
2019-03-09T09:28:09.699Z,70.45
2019-03-09T09:30:40.587Z,71.42
2019-03-09T09:33:09.118Z,69.49
2019-03-09T09:35:37.578Z,69.33
2019-03-09T09:38:06.508Z,69.70
2019-03-09T09:40:36.674Z,68.71
2019-03-09T09:43:08.578Z,69.45
2019-03-09T09:45:37.163Z,66.81
2019-03-09T09:48:05.807Z,68.92
2019-03-09T09:50:34.323Z,68.64
2019-03-09T09:53:02.972Z,70.08
2019-03-09T09:55:31.874Z,70.98
2019-03-09T09:58:00.357Z,71.28
2019-03-09T10:00:29.355Z,69.34
2019-03-09T10:02:57.823Z,68.69
2019-03-09T10:05:26.490Z,68.21
2019-03-09T10:07:55.120Z,68.12
2019-03-09T10:10:24.211Z,67.97
2019-03-09T10:15:53.014Z,69.27
2019-03-09T10:18:29.852Z,68.23
2019-03-09T10:21:01.380Z,67.96
2019-03-09T10:23:42.936Z,66.50
2019-03-09T10:26:11.406Z,69.28
2019-03-09T10:28:43.182Z,70.94
2019-03-09T10:31:14.836Z,71.20
2019-03-09T10:33:43.314Z,68.96
2019-03-09T10:36:12.432Z,70.12
2019-03-09T10:38:40.946Z,66.19
2019-03-09T10:41:09.371Z,64.74
2019-03-09T10:43:38.007Z,63.24
2019-03-09T10:46:09.831Z,62.58
2019-03-09T10:48:38.320Z,63.47
2019-03-09T10:51:06.778Z,63.33
2019-03-09T10:53:35.279Z,63.87
2019-03-09T10:56:05.904Z,63.81
2019-03-09T10:58:37.387Z,64.27
2019-03-09T11:01:08.592Z,65.00
2019-03-09T11:03:40.626Z,65.51
2019-03-09T11:06:10.621Z,64.70
2019-03-09T11:08:44.120Z,65.01
2019-03-09T11:11:11.963Z,64.03
2019-03-09T11:13:40.495Z,64.31
2019-03-09T11:16:09.026Z,63.74
2019-03-09T11:18:40.261Z,64.25
2019-03-09T11:21:08.858Z,63.34
2019-03-09T11:23:37.550Z,63.01
2019-03-09T11:26:06.170Z,63.36
2019-03-09T11:28:35.009Z,61.71
2019-03-09T11:31:03.498Z,60.99
2019-03-09T11:33:32.031Z,61.77
2019-03-09T11:36:00.517Z,63.11
2019-03-09T11:38:28.981Z,61.46
2019-03-09T11:41:00.643Z,62.19
2019-03-09T11:43:27.790Z,62.09
2019-03-09T11:45:57.804Z,62.45
2019-03-09T11:48:26.437Z,62.78
2019-03-09T11:50:54.919Z,61.43
2019-03-09T11:53:23.451Z,63.15
2019-03-09T11:55:51.916Z,62.47
2019-03-09T11:58:20.676Z,62.38
2019-03-09T12:00:50.667Z,62.75
2019-03-09T12:03:20.713Z,62.45
2019-03-09T12:05:49.170Z,61.93
2019-03-09T12:08:17.663Z,61.63
2019-03-09T12:10:46.180Z,60.78
2019-03-09T12:13:14.758Z,61.38
2019-03-09T12:15:43.208Z,59.60
2019-03-09T12:18:13.471Z,59.12
2019-03-09T12:20:43.561Z,60.05
2019-03-09T12:23:30.282Z,59.48
2019-03-09T12:25:58.830Z,60.95
2019-03-09T12:28:27.381Z,61.40
2019-03-09T12:30:57.438Z,63.84
2019-03-09T12:33:32.366Z,63.43
2019-03-09T12:36:00.825Z,64.52
2019-03-09T12:38:29.751Z,64.01
2019-03-09T12:40:59.494Z,62.92
2019-03-09T12:43:30.141Z,62.92
2019-03-09T12:45:58.574Z,63.68
2019-03-09T12:48:27.065Z,63.48
2019-03-09T12:50:57.165Z,61.75
2019-03-09T12:53:25.728Z,60.29
2019-03-09T12:55:54.256Z,59.50
2019-03-09T12:58:24.386Z,58.54
2019-03-09T13:00:52.923Z,56.69
2019-03-09T13:03:21.483Z,59.21
2019-03-09T13:05:50.030Z,58.63
2019-03-09T13:08:18.505Z,58.62
2019-03-09T13:10:46.983Z,58.09
2019-03-09T13:13:15.596Z,57.49
2019-03-09T13:15:44.148Z,58.25
2019-03-09T13:18:15.659Z,57.22
2019-03-09T13:20:44.132Z,58.23
2019-03-09T13:23:15.611Z,56.93
2019-03-09T13:25:44.163Z,58.23
2019-03-09T13:28:12.667Z,58.19
2019-03-09T13:30:41.149Z,59.52
2019-03-09T13:33:09.630Z,60.30
2019-03-09T13:35:39.011Z,61.25
2019-03-09T13:38:07.579Z,60.46
2019-03-09T13:40:36.135Z,61.69
2019-03-09T13:43:04.778Z,60.85
2019-03-09T13:45:34.905Z,61.99
2019-03-09T13:48:03.484Z,61.83
2019-03-09T13:50:32.080Z,61.57
2019-03-09T13:53:00.627Z,61.67
2019-03-09T13:55:29.177Z,61.12
2019-03-09T13:57:59.208Z,59.79
2019-03-09T14:00:27.676Z,61.20
2019-03-09T14:02:57.700Z,60.91
2019-03-09T14:05:26.172Z,60.37
2019-03-09T14:07:54.669Z,60.81
2019-03-09T14:10:24.932Z,60.54
2019-03-09T14:12:53.494Z,61.23
2019-03-09T14:15:22.093Z,61.52
2019-03-09T14:17:50.659Z,62.00
2019-03-09T14:20:19.394Z,61.89
2019-03-09T14:22:49.423Z,61.83
2019-03-09T14:25:18.083Z,61.91
2019-03-09T14:27:46.692Z,61.86
2019-03-09T14:30:17.607Z,60.93
2019-03-09T14:32:46.218Z,58.83
2019-03-09T14:35:15.168Z,58.77
2019-03-09T14:37:46.012Z,57.88
2019-03-09T14:40:15.746Z,56.54
2019-03-09T14:42:47.195Z,56.56
2019-03-09T14:45:20.642Z,56.71
2019-03-09T14:47:50.830Z,55.27
2019-03-09T14:50:19.538Z,56.28
2019-03-09T14:52:50.436Z,56.94
2019-03-09T14:55:19.112Z,56.01
2019-03-09T14:57:47.585Z,57.08
2019-03-09T15:00:21.154Z,56.74
2019-03-09T15:02:51.317Z,57.55
2019-03-09T15:05:20.083Z,57.50
2019-03-09T15:07:49.089Z,58.26
2019-03-09T15:10:19.868Z,59.33
2019-03-09T15:12:48.393Z,58.95
2019-03-09T15:15:18.566Z,58.69
2019-03-09T15:17:47.175Z,58.32
2019-03-09T15:20:16.870Z,58.53
2019-03-09T15:22:45.401Z,60.52
2019-03-09T15:25:16.096Z,60.15
2019-03-09T15:27:44.720Z,60.32
2019-03-09T15:30:15.614Z,59.53
2019-03-09T15:32:44.152Z,60.28
2019-03-09T15:35:12.868Z,60.59
2019-03-09T15:37:41.309Z,60.68
2019-03-09T15:40:13.769Z,60.33
2019-03-09T15:42:42.236Z,60.83
2019-03-09T15:45:15.442Z,60.19
2019-03-09T15:47:44.453Z,59.92
2019-03-09T15:50:23.347Z,59.30
2019-03-09T15:52:51.836Z,59.50
2019-03-09T15:55:20.893Z,58.87
2019-03-09T15:57:49.462Z,57.87
2019-03-09T16:00:26.162Z,56.86
2019-03-09T16:02:54.695Z,57.46
2019-03-09T16:05:23.274Z,57.13
2019-03-09T16:07:53.574Z,59.35
2019-03-09T16:10:22.831Z,62.01
2019-03-09T16:12:52.941Z,65.30
2019-03-09T16:15:21.580Z,65.87
2019-03-09T16:17:51.206Z,66.34
2019-03-09T16:20:23.404Z,70.91
2019-03-09T16:22:52.145Z,74.94
2019-03-09T16:25:25.306Z,77.30
2019-03-09T16:27:55.595Z,77.24
2019-03-09T16:30:26.919Z,80.18
2019-03-09T16:32:56.949Z,80.42
2019-03-09T16:35:28.407Z,81.00
2019-03-09T16:38:04.076Z,81.71
2019-03-09T16:40:40.561Z,82.58
2019-03-09T16:43:05.230Z,82.55
2019-03-09T16:45:33.903Z,82.72
2019-03-09T16:48:02.392Z,83.12
2019-03-09T16:50:31.221Z,83.33
2019-03-09T16:53:01.394Z,82.36
2019-03-09T16:55:30.027Z,83.45
2019-03-09T16:58:02.691Z,84.35
2019-03-09T17:00:31.290Z,83.36
2019-03-09T17:03:02.970Z,83.50
2019-03-09T17:05:31.783Z,84.26
2019-03-09T17:08:38.413Z,84.71
2019-03-09T17:11:07.202Z,83.49
2019-03-09T17:13:35.943Z,84.83
2019-03-09T17:16:04.487Z,84.18
2019-03-09T17:18:32.964Z,84.75
2019-03-09T17:21:01.428Z,84.20
2019-03-09T17:23:29.903Z,84.72
2019-03-09T17:26:01.402Z,85.14
2019-03-09T17:28:29.993Z,85.12
2019-03-09T17:31:01.672Z,85.09
2019-03-09T17:33:30.139Z,85.03
2019-03-09T17:35:58.890Z,85.04
2019-03-09T17:38:27.392Z,85.40
2019-03-09T17:40:56.006Z,85.25
2019-03-09T17:43:24.469Z,85.29
2019-03-09T17:45:52.960Z,85.48
2019-03-09T17:48:21.434Z,85.97
2019-03-09T17:50:52.565Z,86.04
2019-03-09T17:53:24.102Z,86.15
2019-03-09T17:55:52.762Z,86.60
2019-03-09T17:58:23.725Z,86.60
2019-03-09T18:00:52.238Z,86.45
2019-03-09T18:03:20.702Z,86.52
2019-03-09T18:05:49.861Z,86.55
2019-03-09T18:08:18.384Z,85.64
2019-03-09T18:10:50.200Z,84.18
2019-03-09T18:13:18.674Z,84.03
2019-03-09T18:15:48.951Z,84.03
2019-03-09T18:18:17.915Z,83.29
2019-03-09T18:20:46.896Z,83.36
2019-03-09T18:23:15.418Z,82.90
2019-03-09T18:25:47.080Z,82.97
2019-03-09T18:28:15.634Z,82.94
2019-03-09T18:30:45.273Z,82.63
2019-03-09T18:33:15.494Z,82.50
2019-03-09T18:35:44.075Z,82.51
2019-03-09T18:38:12.534Z,82.84
2019-03-09T18:40:42.040Z,82.91
2019-03-09T18:43:10.573Z,82.91
2019-03-09T18:45:41.340Z,82.95
2019-03-09T18:48:09.924Z,83.31
2019-03-09T18:50:38.515Z,81.71
2019-03-09T18:53:08.112Z,81.98
2019-03-09T18:55:40.884Z,81.84
2019-03-09T18:58:09.527Z,82.02
2019-03-09T19:00:38.028Z,82.05
2019-03-09T19:03:06.535Z,82.05
2019-03-09T19:05:35.301Z,81.58
2019-03-09T19:08:04.184Z,81.07
2019-03-09T19:10:33.904Z,82.05
2019-03-09T19:13:03.968Z,81.32
2019-03-09T19:15:32.781Z,81.19
2019-03-09T19:18:04.040Z,81.59
2019-03-09T19:20:32.913Z,81.16
2019-03-09T19:23:01.480Z,81.36
2019-03-09T19:25:31.465Z,81.49
2019-03-09T19:27:59.928Z,81.63
2019-03-09T19:30:28.755Z,80.97
2019-03-09T19:33:00.601Z,81.09
2019-03-09T19:35:27.579Z,81.02
2019-03-09T19:37:56.509Z,80.32
2019-03-09T19:40:25.601Z,81.16
2019-03-09T19:42:54.399Z,80.68
2019-03-09T19:45:27.658Z,80.38
2019-03-09T19:48:02.987Z,80.05
2019-03-09T19:50:31.489Z,80.31
2019-03-09T19:53:00.085Z,80.42
2019-03-09T19:55:31.051Z,80.50
2019-03-09T19:57:59.683Z,80.15
2019-03-09T20:00:31.083Z,80.80
2019-03-09T20:02:59.593Z,80.83
2019-03-09T20:05:28.136Z,80.14
2019-03-09T20:07:56.730Z,80.39
2019-03-09T20:10:26.287Z,81.13
2019-03-09T20:12:56.517Z,80.91
2019-03-09T20:15:25.181Z,81.07
2019-03-09T20:17:53.822Z,80.86
2019-03-09T20:20:22.731Z,81.04
2019-03-09T20:22:51.341Z,80.50
2019-03-09T20:25:21.840Z,80.34
2019-03-09T20:27:50.779Z,79.93
2019-03-09T20:30:25.277Z,79.58
2019-03-09T20:32:55.574Z,80.23
2019-03-09T20:35:24.870Z,79.13
2019-03-09T20:37:56.563Z,79.63
2019-03-09T20:40:25.127Z,79.44
2019-03-09T20:42:55.405Z,78.89
2019-03-09T20:45:28.053Z,78.18
2019-03-09T20:47:56.548Z,78.72
2019-03-09T20:50:26.419Z,78.70
2019-03-09T20:52:55.214Z,78.69
2019-03-09T20:55:23.995Z,78.94
2019-03-09T20:57:54.320Z,78.22
2019-03-09T21:00:23.388Z,78.40
2019-03-09T21:02:52.040Z,78.33
2019-03-09T21:05:20.788Z,78.12
2019-03-09T21:07:49.459Z,78.06
2019-03-09T21:10:19.507Z,78.16
2019-03-09T21:13:10.844Z,77.60
2019-03-09T21:15:39.434Z,77.78
2019-03-09T21:18:09.593Z,77.59
2019-03-09T21:20:38.069Z,78.22
2019-03-09T21:23:07.117Z,77.24
2019-03-09T21:25:35.701Z,77.22
2019-03-09T21:28:04.305Z,77.35
2019-03-09T21:30:32.866Z,77.67
2019-03-09T21:33:01.371Z,77.61
2019-03-09T21:35:29.848Z,77.14
2019-03-09T21:37:58.392Z,77.83
2019-03-09T21:40:26.861Z,76.84
2019-03-09T21:42:55.341Z,77.03
2019-03-09T21:45:25.612Z,76.44
2019-03-09T21:47:54.182Z,76.76
2019-03-09T21:50:22.734Z,76.64
2019-03-09T21:52:51.266Z,75.22
2019-03-09T21:55:19.928Z,76.00
2019-03-09T21:57:48.388Z,75.59
2019-03-09T22:00:22.414Z,75.33
2019-03-09T22:02:50.886Z,75.15
2019-03-09T22:05:19.549Z,74.97
2019-03-09T22:07:48.032Z,75.23
2019-03-09T22:10:16.644Z,74.91
2019-03-09T22:12:48.128Z,74.45
2019-03-09T22:15:17.896Z,74.52
2019-03-09T22:17:49.315Z,74.77
2019-03-09T22:20:20.366Z,74.19
2019-03-09T22:22:48.442Z,73.69
2019-03-09T22:25:17.420Z,73.87
2019-03-09T22:27:45.862Z,74.31
2019-03-09T22:30:16.005Z,74.05
2019-03-09T22:32:44.482Z,74.86
2019-03-09T22:35:14.148Z,73.79
2019-03-09T22:37:42.721Z,74.47
2019-03-09T22:40:12.822Z,74.36
2019-03-09T22:42:41.359Z,75.38
2019-03-09T22:45:12.163Z,74.92
2019-03-09T22:47:40.865Z,75.29
2019-03-09T22:50:12.369Z,75.04
2019-03-09T22:52:41.010Z,75.00
2019-03-09T22:55:10.490Z,75.92
2019-03-09T22:57:38.959Z,75.21
2019-03-09T23:00:22.441Z,75.64
2019-03-09T23:02:50.994Z,75.55
2019-03-09T23:05:21.191Z,75.86
2019-03-09T23:07:52.893Z,75.74
2019-03-09T23:10:22.992Z,75.79
2019-03-09T23:12:51.546Z,75.99
2019-03-09T23:15:20.298Z,75.87
2019-03-09T23:17:51.862Z,76.11
2019-03-09T23:20:20.439Z,75.91
2019-03-09T23:22:48.950Z,76.79
2019-03-09T23:25:18.110Z,76.06
2019-03-09T23:27:48.201Z,76.27
2019-03-09T23:30:18.672Z,76.31
2019-03-09T23:32:49.363Z,76.15
2019-03-09T23:35:17.997Z,76.58
2019-03-09T23:37:50.247Z,76.87
2019-03-09T23:40:21.044Z,77.01
2019-03-09T23:42:49.532Z,76.98
2019-03-09T23:45:20.321Z,77.24
2019-03-09T23:47:48.950Z,77.91
2019-03-09T23:50:19.991Z,77.24
2019-03-09T23:52:48.606Z,77.86
2019-03-09T23:55:22.600Z,77.58
2019-03-09T23:57:51.812Z,77.63
